sensor_id;sensor_type;location;lat;lon;timestamp;pressure;altitude;pressure_sealevel;temperature;humidity
12452;BME280;72521;48.924;12.204;2023-09-19T00:03:33;97063.22;;;14.57;91.21
12452;BME280;72521;48.924;12.204;2023-09-19T00:08:40;97081.69;;;14.45;91.91
12452;BME280;72521;48.924;12.204;2023-09-19T00:13:49;97080.75;;;14.58;91.21
12452;BME280;72521;48.924;12.204;2023-09-19T00:18:54;97082.94;;;14.65;90.72
12452;BME280;72521;48.924;12.204;2023-09-19T00:23:58;97081.06;;;14.57;90.96
12452;BME280;72521;48.924;12.204;2023-09-19T00:29:04;97088.75;;;14.67;91.14
12452;BME280;72521;48.924;12.204;2023-09-19T00:34:11;97083.56;;;14.79;90.02
12452;BME280;72521;48.924;12.204;2023-09-19T00:39:16;97080.72;;;14.84;90.44
12452;BME280;72521;48.924;12.204;2023-09-19T00:44:24;97086.84;;;14.76;90.21
12452;BME280;72521;48.924;12.204;2023-09-19T00:49:28;97090.59;;;14.75;89.82
12452;BME280;72521;48.924;12.204;2023-09-19T00:54:34;97092.00;;;14.72;90.04
12452;BME280;72521;48.924;12.204;2023-09-19T00:59:39;97084.19;;;14.76;89.87
12452;BME280;72521;48.924;12.204;2023-09-19T01:04:44;97090.00;;;14.78;89.80
12452;BME280;72521;48.924;12.204;2023-09-19T01:09:49;97081.34;;;14.72;89.79
12452;BME280;72521;48.924;12.204;2023-09-19T01:14:59;97092.78;;;14.73;90.31
12452;BME280;72521;48.924;12.204;2023-09-19T01:20:21;97098.44;;;14.63;91.02
12452;BME280;72521;48.924;12.204;2023-09-19T01:26:05;97101.41;;;14.61;91.17
12452;BME280;72521;48.924;12.204;2023-09-19T01:31:12;97108.47;;;14.66;91.01
12452;BME280;72521;48.924;12.204;2023-09-19T01:36:17;97101.88;;;14.63;91.24
12452;BME280;72521;48.924;12.204;2023-09-19T01:41:40;97095.78;;;14.71;90.53
12452;BME280;72521;48.924;12.204;2023-09-19T01:46:47;97100.00;;;14.81;90.35
12452;BME280;72521;48.924;12.204;2023-09-19T01:51:59;97104.69;;;14.84;90.26
12452;BME280;72521;48.924;12.204;2023-09-19T01:57:14;97111.13;;;14.74;89.95
12452;BME280;72521;48.924;12.204;2023-09-19T02:02:20;97115.38;;;14.67;89.67
12452;BME280;72521;48.924;12.204;2023-09-19T02:07:25;97114.59;;;14.58;90.29
12452;BME280;72521;48.924;12.204;2023-09-19T02:12:30;97111.13;;;14.57;90.47
12452;BME280;72521;48.924;12.204;2023-09-19T02:17:39;97113.31;;;14.55;90.61
12452;BME280;72521;48.924;12.204;2023-09-19T02:22:44;97114.41;;;14.63;90.13
12452;BME280;72521;48.924;12.204;2023-09-19T02:27:48;97116.94;;;14.68;90.00
12452;BME280;72521;48.924;12.204;2023-09-19T02:32:58;97116.28;;;14.71;90.33
12452;BME280;72521;48.924;12.204;2023-09-19T02:38:04;97113.47;;;14.76;89.83
12452;BME280;72521;48.924;12.204;2023-09-19T02:43:09;97116.91;;;14.85;89.39
12452;BME280;72521;48.924;12.204;2023-09-19T02:48:14;97118.50;;;14.86;90.39
12452;BME280;72521;48.924;12.204;2023-09-19T02:53:18;97114.41;;;14.97;89.16
12452;BME280;72521;48.924;12.204;2023-09-19T02:58:23;97124.56;;;15.12;88.50
12452;BME280;72521;48.924;12.204;2023-09-19T03:03:29;97128.97;;;15.08;89.29
12452;BME280;72521;48.924;12.204;2023-09-19T03:08:33;97137.41;;;15.10;89.01
12452;BME280;72521;48.924;12.204;2023-09-19T03:13:38;97139.75;;;15.20;88.70
12452;BME280;72521;48.924;12.204;2023-09-19T03:18:45;97144.94;;;15.17;88.59
12452;BME280;72521;48.924;12.204;2023-09-19T03:23:50;97145.41;;;15.28;87.73
12452;BME280;72521;48.924;12.204;2023-09-19T03:28:55;97153.38;;;15.28;87.71
12452;BME280;72521;48.924;12.204;2023-09-19T03:34:01;97152.41;;;15.32;87.41
12452;BME280;72521;48.924;12.204;2023-09-19T03:39:06;97155.72;;;15.29;87.59
12452;BME280;72521;48.924;12.204;2023-09-19T03:44:10;97162.31;;;15.32;87.29
12452;BME280;72521;48.924;12.204;2023-09-19T03:49:15;97162.44;;;15.44;86.76
12452;BME280;72521;48.924;12.204;2023-09-19T03:54:20;97155.50;;;15.51;85.75
12452;BME280;72521;48.924;12.204;2023-09-19T03:59:24;97159.47;;;15.45;86.42
12452;BME280;72521;48.924;12.204;2023-09-19T04:04:30;97157.72;;;15.49;85.79
12452;BME280;72521;48.924;12.204;2023-09-19T04:09:34;97165.72;;;15.49;85.67
12452;BME280;72521;48.924;12.204;2023-09-19T04:14:38;97163.69;;;15.46;85.63
12452;BME280;72521;48.924;12.204;2023-09-19T04:19:44;97167.16;;;15.47;85.54
12452;BME280;72521;48.924;12.204;2023-09-19T04:24:48;97165.56;;;15.46;85.48
12452;BME280;72521;48.924;12.204;2023-09-19T04:29:52;97169.97;;;15.42;85.34
12452;BME280;72521;48.924;12.204;2023-09-19T04:34:58;97167.00;;;15.43;84.63
12452;BME280;72521;48.924;12.204;2023-09-19T04:40:06;97166.66;;;15.45;84.32
12452;BME280;72521;48.924;12.204;2023-09-19T04:45:15;97184.38;;;15.49;83.65
12452;BME280;72521;48.924;12.204;2023-09-19T04:50:21;97186.91;;;15.46;83.71
12452;BME280;72521;48.924;12.204;2023-09-19T04:55:26;97184.56;;;15.44;84.09
12452;BME280;72521;48.924;12.204;2023-09-19T05:00:33;97188.47;;;15.47;83.54
12452;BME280;72521;48.924;12.204;2023-09-19T05:05:39;97191.28;;;15.42;84.24
12452;BME280;72521;48.924;12.204;2023-09-19T05:10:43;97198.66;;;15.45;83.98
12452;BME280;72521;48.924;12.204;2023-09-19T05:15:48;97197.72;;;15.41;84.00
12452;BME280;72521;48.924;12.204;2023-09-19T05:20:53;97206.38;;;15.38;84.26
12452;BME280;72521;48.924;12.204;2023-09-19T05:25:58;97217.97;;;15.42;83.88
12452;BME280;72521;48.924;12.204;2023-09-19T05:31:02;97219.06;;;15.41;83.75
12452;BME280;72521;48.924;12.204;2023-09-19T05:36:07;97212.16;;;15.40;84.09
12452;BME280;72521;48.924;12.204;2023-09-19T05:41:12;97226.75;;;15.34;84.45
12452;BME280;72521;48.924;12.204;2023-09-19T05:46:17;97218.44;;;15.35;84.17
12452;BME280;72521;48.924;12.204;2023-09-19T05:51:23;97225.03;;;15.38;84.03
12452;BME280;72521;48.924;12.204;2023-09-19T05:56:28;97230.66;;;15.45;83.42
12452;BME280;72521;48.924;12.204;2023-09-19T06:01:32;97233.47;;;15.48;83.91
12452;BME280;72521;48.924;12.204;2023-09-19T06:06:38;97241.34;;;15.45;84.26
12452;BME280;72521;48.924;12.204;2023-09-19T06:11:43;97242.13;;;15.45;84.26
12452;BME280;72521;48.924;12.204;2023-09-19T06:16:46;97246.97;;;15.43;84.78
12452;BME280;72521;48.924;12.204;2023-09-19T06:21:52;97249.81;;;15.47;84.98
12452;BME280;72521;48.924;12.204;2023-09-19T06:26:57;97259.19;;;15.70;83.93
12452;BME280;72521;48.924;12.204;2023-09-19T06:32:07;97253.28;;;16.11;82.62
12452;BME280;72521;48.924;12.204;2023-09-19T06:37:14;97262.97;;;16.54;80.95
12452;BME280;72521;48.924;12.204;2023-09-19T06:42:18;97278.66;;;16.64;80.81
12452;BME280;72521;48.924;12.204;2023-09-19T06:47:23;97279.69;;;17.22;79.54
12452;BME280;72521;48.924;12.204;2023-09-19T06:52:30;97294.03;;;17.38;77.86
12452;BME280;72521;48.924;12.204;2023-09-19T06:57:35;97304.66;;;17.05;79.85
12452;BME280;72521;48.924;12.204;2023-09-19T07:02:39;97308.50;;;16.95;80.67
12452;BME280;72521;48.924;12.204;2023-09-19T07:07:45;97314.84;;;16.82;79.53
12452;BME280;72521;48.924;12.204;2023-09-19T07:12:56;97318.66;;;16.81;79.28
12452;BME280;72521;48.924;12.204;2023-09-19T07:18:01;97324.38;;;16.92;79.29
12452;BME280;72521;48.924;12.204;2023-09-19T07:23:06;97322.53;;;17.13;77.79
12452;BME280;72521;48.924;12.204;2023-09-19T07:28:10;97328.84;;;17.50;77.43
12452;BME280;72521;48.924;12.204;2023-09-19T07:33:14;97327.81;;;17.42;76.07
12452;BME280;72521;48.924;12.204;2023-09-19T07:38:19;97323.25;;;17.85;74.61
12452;BME280;72521;48.924;12.204;2023-09-19T07:43:27;97334.78;;;19.03;72.10
12452;BME280;72521;48.924;12.204;2023-09-19T07:48:31;97333.53;;;17.95;73.91
12452;BME280;72521;48.924;12.204;2023-09-19T07:53:36;97343.91;;;17.63;74.96
12452;BME280;72521;48.924;12.204;2023-09-19T07:58:41;97354.78;;;17.37;74.22
12452;BME280;72521;48.924;12.204;2023-09-19T08:03:45;97365.66;;;17.53;74.85
12452;BME280;72521;48.924;12.204;2023-09-19T08:08:52;97359.41;;;17.70;73.53
12452;BME280;72521;48.924;12.204;2023-09-19T08:13:57;97369.19;;;17.45;73.63
12452;BME280;72521;48.924;12.204;2023-09-19T08:19:01;97368.81;;;17.97;73.37
12452;BME280;72521;48.924;12.204;2023-09-19T08:24:07;97373.22;;;18.13;72.47
12452;BME280;72521;48.924;12.204;2023-09-19T08:29:12;97371.78;;;18.16;72.51
12452;BME280;72521;48.924;12.204;2023-09-19T08:34:16;97370.22;;;18.27;71.02
12452;BME280;72521;48.924;12.204;2023-09-19T08:39:22;97375.88;;;18.13;71.20
12452;BME280;72521;48.924;12.204;2023-09-19T08:44:26;97373.16;;;18.34;70.30
12452;BME280;72521;48.924;12.204;2023-09-19T08:49:41;97371.34;;;18.96;69.07
12452;BME280;72521;48.924;12.204;2023-09-19T08:54:50;97377.97;;;18.41;69.24
12452;BME280;72521;48.924;12.204;2023-09-19T08:59:56;97374.53;;;18.52;69.12
12452;BME280;72521;48.924;12.204;2023-09-19T09:05:02;97381.28;;;18.38;69.45
12452;BME280;72521;48.924;12.204;2023-09-19T09:10:10;97386.50;;;18.22;70.29
12452;BME280;72521;48.924;12.204;2023-09-19T09:15:16;97384.91;;;17.88;70.84
12452;BME280;72521;48.924;12.204;2023-09-19T09:20:22;97385.97;;;17.96;71.29
12452;BME280;72521;48.924;12.204;2023-09-19T09:25:53;97388.81;;;18.11;71.30
12452;BME280;72521;48.924;12.204;2023-09-19T09:30:59;97379.09;;;18.07;71.23
12452;BME280;72521;48.924;12.204;2023-09-19T09:36:06;97388.63;;;18.16;71.94
12452;BME280;72521;48.924;12.204;2023-09-19T09:41:12;97389.47;;;18.08;71.64
12452;BME280;72521;48.924;12.204;2023-09-19T09:46:32;97407.94;;;18.22;71.35
12452;BME280;72521;48.924;12.204;2023-09-19T09:52:08;97432.44;;;16.82;71.44
12452;BME280;72521;48.924;12.204;2023-09-19T09:57:21;97462.25;;;16.12;76.73
12452;BME280;72521;48.924;12.204;2023-09-19T10:02:30;97453.63;;;15.23;83.68
12452;BME280;72521;48.924;12.204;2023-09-19T10:07:42;97453.97;;;14.91;84.09
12452;BME280;72521;48.924;12.204;2023-09-19T10:12:55;97451.31;;;14.91;84.20
12452;BME280;72521;48.924;12.204;2023-09-19T10:18:06;97460.88;;;15.40;81.52
12452;BME280;72521;48.924;12.204;2023-09-19T10:23:12;97446.22;;;15.60;81.48
12452;BME280;72521;48.924;12.204;2023-09-19T10:28:19;97433.34;;;15.96;79.86
12452;BME280;72521;48.924;12.204;2023-09-19T10:33:36;97448.03;;;16.54;77.50
12452;BME280;72521;48.924;12.204;2023-09-19T10:38:43;97448.38;;;16.44;79.85
12452;BME280;72521;48.924;12.204;2023-09-19T10:43:51;97448.91;;;16.20;79.24
12452;BME280;72521;48.924;12.204;2023-09-19T10:49:00;97443.00;;;16.79;76.81
12452;BME280;72521;48.924;12.204;2023-09-19T10:54:08;97445.50;;;17.13;75.70
12452;BME280;72521;48.924;12.204;2023-09-19T10:59:18;97439.97;;;16.89;73.98
12452;BME280;72521;48.924;12.204;2023-09-19T11:04:28;97433.34;;;17.54;72.97
12452;BME280;72521;48.924;12.204;2023-09-19T11:09:47;97442.28;;;17.58;70.60
12452;BME280;72521;48.924;12.204;2023-09-19T11:15:04;97431.66;;;17.91;71.55
12452;BME280;72521;48.924;12.204;2023-09-19T11:20:24;97440.81;;;17.69;72.36
12452;BME280;72521;48.924;12.204;2023-09-19T11:25:44;97443.72;;;18.83;69.12
12452;BME280;72521;48.924;12.204;2023-09-19T11:30:54;97442.16;;;18.95;69.01
12452;BME280;72521;48.924;12.204;2023-09-19T11:36:03;97440.75;;;19.21;66.29
12452;BME280;72521;48.924;12.204;2023-09-19T11:41:40;97448.47;;;20.27;61.25
12452;BME280;72521;48.924;12.204;2023-09-19T11:46:55;97446.69;;;20.19;61.25
12452;BME280;72521;48.924;12.204;2023-09-19T11:52:02;97427.97;;;20.94;61.26
12452;BME280;72521;48.924;12.204;2023-09-19T11:57:09;97429.94;;;21.64;56.46
12452;BME280;72521;48.924;12.204;2023-09-19T12:02:31;97424.97;;;20.68;58.69
12452;BME280;72521;48.924;12.204;2023-09-19T12:07:43;97416.06;;;20.64;58.42
12452;BME280;72521;48.924;12.204;2023-09-19T12:12:49;97426.63;;;20.88;58.61
12452;BME280;72521;48.924;12.204;2023-09-19T12:17:58;97416.91;;;21.15;59.04
12452;BME280;72521;48.924;12.204;2023-09-19T12:23:13;97417.44;;;21.91;56.15
12452;BME280;72521;48.924;12.204;2023-09-19T12:28:18;97411.00;;;21.41;55.53
12452;BME280;72521;48.924;12.204;2023-09-19T12:33:26;97415.69;;;22.17;54.88
12452;BME280;72521;48.924;12.204;2023-09-19T12:38:30;97400.13;;;21.72;53.60
12452;BME280;72521;48.924;12.204;2023-09-19T12:43:35;97403.69;;;22.76;49.74
12452;BME280;72521;48.924;12.204;2023-09-19T12:48:44;97393.00;;;21.99;50.88
12452;BME280;72521;48.924;12.204;2023-09-19T12:53:57;97389.66;;;21.17;52.17
12452;BME280;72521;48.924;12.204;2023-09-19T12:59:01;97391.09;;;22.19;50.61
12452;BME280;72521;48.924;12.204;2023-09-19T13:04:18;97388.38;;;21.80;50.55
12452;BME280;72521;48.924;12.204;2023-09-19T13:09:24;97388.56;;;21.18;52.61
12452;BME280;72521;48.924;12.204;2023-09-19T13:14:34;97383.56;;;22.28;49.39
12452;BME280;72521;48.924;12.204;2023-09-19T13:19:46;97383.31;;;21.40;51.94
12452;BME280;72521;48.924;12.204;2023-09-19T13:24:52;97387.41;;;22.08;50.42
12452;BME280;72521;48.924;12.204;2023-09-19T13:29:57;97377.69;;;20.98;52.18
12452;BME280;72521;48.924;12.204;2023-09-19T13:35:04;97370.44;;;21.69;52.34
12452;BME280;72521;48.924;12.204;2023-09-19T13:40:13;97370.44;;;22.49;49.96
12452;BME280;72521;48.924;12.204;2023-09-19T13:45:18;97360.56;;;23.59;47.68
12452;BME280;72521;48.924;12.204;2023-09-19T13:50:28;97358.91;;;24.51;44.02
12452;BME280;72521;48.924;12.204;2023-09-19T13:55:34;97361.50;;;23.17;46.59
12452;BME280;72521;48.924;12.204;2023-09-19T14:00:38;97355.97;;;24.26;45.56
12452;BME280;72521;48.924;12.204;2023-09-19T14:05:43;97356.28;;;23.02;44.66
12452;BME280;72521;48.924;12.204;2023-09-19T14:10:47;97353.00;;;22.89;46.44
12452;BME280;72521;48.924;12.204;2023-09-19T14:15:51;97365.13;;;23.51;45.17
12452;BME280;72521;48.924;12.204;2023-09-19T14:20:57;97354.84;;;22.62;45.62
12452;BME280;72521;48.924;12.204;2023-09-19T14:26:01;97361.00;;;22.40;47.61
12452;BME280;72521;48.924;12.204;2023-09-19T14:31:06;97350.50;;;21.54;50.31
12452;BME280;72521;48.924;12.204;2023-09-19T14:36:12;97349.78;;;21.96;47.40
12452;BME280;72521;48.924;12.204;2023-09-19T14:41:16;97343.00;;;23.46;45.23
12452;BME280;72521;48.924;12.204;2023-09-19T14:46:20;97343.78;;;23.73;44.35
12452;BME280;72521;48.924;12.204;2023-09-19T14:51:30;97339.06;;;23.99;43.56
12452;BME280;72521;48.924;12.204;2023-09-19T14:56:34;97335.97;;;24.01;44.15
12452;BME280;72521;48.924;12.204;2023-09-19T15:01:38;97327.84;;;22.58;46.75
12452;BME280;72521;48.924;12.204;2023-09-19T15:06:45;97330.94;;;22.83;47.16
12452;BME280;72521;48.924;12.204;2023-09-19T15:11:49;97334.28;;;23.56;44.98
12452;BME280;72521;48.924;12.204;2023-09-19T15:16:54;97331.25;;;25.23;41.58
12452;BME280;72521;48.924;12.204;2023-09-19T15:21:59;97335.78;;;23.83;44.18
12452;BME280;72521;48.924;12.204;2023-09-19T15:27:04;97334.28;;;24.23;44.84
12452;BME280;72521;48.924;12.204;2023-09-19T15:32:08;97330.03;;;23.55;45.14
12452;BME280;72521;48.924;12.204;2023-09-19T15:37:14;97330.44;;;23.01;45.38
12452;BME280;72521;48.924;12.204;2023-09-19T15:42:19;97337.13;;;24.37;44.23
12452;BME280;72521;48.924;12.204;2023-09-19T15:47:23;97325.16;;;24.38;42.13
12452;BME280;72521;48.924;12.204;2023-09-19T15:52:29;97327.78;;;23.04;45.28
12452;BME280;72521;48.924;12.204;2023-09-19T15:57:34;97324.94;;;22.71;45.64
12452;BME280;72521;48.924;12.204;2023-09-19T16:02:39;97331.47;;;22.24;47.11
12452;BME280;72521;48.924;12.204;2023-09-19T16:07:45;97326.22;;;21.51;49.33
12452;BME280;72521;48.924;12.204;2023-09-19T16:12:49;97327.59;;;21.09;50.56
12452;BME280;72521;48.924;12.204;2023-09-19T16:17:54;97327.06;;;20.53;52.38
12452;BME280;72521;48.924;12.204;2023-09-19T16:22:59;97329.03;;;20.25;53.43
12452;BME280;72521;48.924;12.204;2023-09-19T16:28:04;97337.94;;;20.13;54.47
12452;BME280;72521;48.924;12.204;2023-09-19T16:33:09;97336.91;;;19.90;54.61
12452;BME280;72521;48.924;12.204;2023-09-19T16:38:16;97335.28;;;19.85;55.18
12452;BME280;72521;48.924;12.204;2023-09-19T16:43:21;97329.88;;;19.70;55.64
12452;BME280;72521;48.924;12.204;2023-09-19T16:48:28;97342.44;;;19.53;56.52
12452;BME280;72521;48.924;12.204;2023-09-19T16:53:37;97344.31;;;19.65;56.69
12452;BME280;72521;48.924;12.204;2023-09-19T16:58:43;97337.75;;;19.38;58.81
12452;BME280;72521;48.924;12.204;2023-09-19T17:03:49;97340.84;;;19.00;60.71
12452;BME280;72521;48.924;12.204;2023-09-19T17:08:56;97332.03;;;18.63;61.18
12452;BME280;72521;48.924;12.204;2023-09-19T17:14:01;97336.31;;;18.55;61.59
12452;BME280;72521;48.924;12.204;2023-09-19T17:19:07;97343.59;;;18.43;62.48
12452;BME280;72521;48.924;12.204;2023-09-19T17:24:14;97339.31;;;18.30;63.56
12452;BME280;72521;48.924;12.204;2023-09-19T17:29:18;97346.00;;;17.91;65.76
12452;BME280;72521;48.924;12.204;2023-09-19T17:34:23;97340.72;;;17.61;67.61
12452;BME280;72521;48.924;12.204;2023-09-19T17:39:28;97344.91;;;17.50;67.90
12452;BME280;72521;48.924;12.204;2023-09-19T17:44:32;97347.47;;;17.47;67.60
12452;BME280;72521;48.924;12.204;2023-09-19T17:49:37;97349.09;;;17.39;66.92
12452;BME280;72521;48.924;12.204;2023-09-19T17:54:44;97346.59;;;17.13;68.14
12452;BME280;72521;48.924;12.204;2023-09-19T17:59:48;97356.13;;;16.93;68.51
12452;BME280;72521;48.924;12.204;2023-09-19T18:04:52;97352.47;;;16.77;69.12
12452;BME280;72521;48.924;12.204;2023-09-19T18:10:00;97355.66;;;16.53;70.37
12452;BME280;72521;48.924;12.204;2023-09-19T18:15:07;97363.56;;;16.41;70.65
12452;BME280;72521;48.924;12.204;2023-09-19T18:20:12;97371.13;;;16.39;70.82
12452;BME280;72521;48.924;12.204;2023-09-19T18:25:19;97373.75;;;16.48;69.99
12452;BME280;72521;48.924;12.204;2023-09-19T18:30:23;97368.28;;;16.36;70.97
12452;BME280;72521;48.924;12.204;2023-09-19T18:35:28;97374.31;;;16.07;71.91
12452;BME280;72521;48.924;12.204;2023-09-19T18:40:35;97383.44;;;16.06;71.66
12452;BME280;72521;48.924;12.204;2023-09-19T18:45:40;97387.38;;;15.91;72.41
12452;BME280;72521;48.924;12.204;2023-09-19T18:50:44;97395.69;;;15.89;72.12
12452;BME280;72521;48.924;12.204;2023-09-19T18:55:50;97407.00;;;15.86;71.38
12452;BME280;72521;48.924;12.204;2023-09-19T19:01:01;97402.44;;;15.78;71.45
12452;BME280;72521;48.924;12.204;2023-09-19T19:06:06;97403.53;;;15.77;71.59
12452;BME280;72521;48.924;12.204;2023-09-19T19:11:14;97410.13;;;15.71;71.65
12452;BME280;72521;48.924;12.204;2023-09-19T19:16:20;97408.56;;;15.62;71.93
12452;BME280;72521;48.924;12.204;2023-09-19T19:21:24;97421.59;;;15.54;72.27
12452;BME280;72521;48.924;12.204;2023-09-19T19:26:30;97416.75;;;15.65;72.00
12452;BME280;72521;48.924;12.204;2023-09-19T19:31:34;97421.44;;;15.68;72.70
12452;BME280;72521;48.924;12.204;2023-09-19T19:36:40;97419.50;;;15.51;72.49
12452;BME280;72521;48.924;12.204;2023-09-19T19:41:48;97423.06;;;15.21;73.97
12452;BME280;72521;48.924;12.204;2023-09-19T19:46:53;97431.31;;;15.11;74.46
12452;BME280;72521;48.924;12.204;2023-09-19T19:51:58;97433.50;;;15.00;75.57
12452;BME280;72521;48.924;12.204;2023-09-19T19:57:04;97440.03;;;14.85;76.69
12452;BME280;72521;48.924;12.204;2023-09-19T20:02:08;97441.94;;;14.63;77.78
12452;BME280;72521;48.924;12.204;2023-09-19T20:07:13;97435.78;;;14.54;77.92
12452;BME280;72521;48.924;12.204;2023-09-19T20:12:20;97438.75;;;14.52;78.14
12452;BME280;72521;48.924;12.204;2023-09-19T20:17:24;97445.53;;;14.36;78.56
12452;BME280;72521;48.924;12.204;2023-09-19T20:22:29;97434.28;;;14.17;79.27
12452;BME280;72521;48.924;12.204;2023-09-19T20:27:34;97435.38;;;14.16;79.76
12452;BME280;72521;48.924;12.204;2023-09-19T20:32:42;97436.34;;;14.20;79.40
12452;BME280;72521;48.924;12.204;2023-09-19T20:37:47;97438.56;;;14.26;79.03
12452;BME280;72521;48.924;12.204;2023-09-19T20:42:54;97437.06;;;14.34;78.78
12452;BME280;72521;48.924;12.204;2023-09-19T20:47:58;97441.66;;;14.42;78.38
12452;BME280;72521;48.924;12.204;2023-09-19T20:53:03;97439.38;;;14.27;79.03
12452;BME280;72521;48.924;12.204;2023-09-19T20:58:09;97443.66;;;14.14;79.64
12452;BME280;72521;48.924;12.204;2023-09-19T21:03:13;97454.34;;;14.23;78.72
12452;BME280;72521;48.924;12.204;2023-09-19T21:08:19;97453.31;;;14.32;78.36
12452;BME280;72521;48.924;12.204;2023-09-19T21:13:24;97456.78;;;14.10;79.86
12452;BME280;72521;48.924;12.204;2023-09-19T21:18:28;97457.63;;;13.97;79.57
12452;BME280;72521;48.924;12.204;2023-09-19T21:23:34;97456.75;;;13.88;80.11
12452;BME280;72521;48.924;12.204;2023-09-19T21:28:39;97454.53;;;13.82;79.84
12452;BME280;72521;48.924;12.204;2023-09-19T21:33:44;97464.53;;;13.62;80.43
12452;BME280;72521;48.924;12.204;2023-09-19T21:38:50;97444.91;;;13.58;80.42
12452;BME280;72521;48.924;12.204;2023-09-19T21:43:55;97454.41;;;13.37;81.99
12452;BME280;72521;48.924;12.204;2023-09-19T21:48:59;97453.72;;;13.18;82.61
12452;BME280;72521;48.924;12.204;2023-09-19T21:54:07;97454.91;;;13.39;81.71
12452;BME280;72521;48.924;12.204;2023-09-19T21:59:13;97456.47;;;13.26;81.97
12452;BME280;72521;48.924;12.204;2023-09-19T22:04:17;97453.72;;;13.45;81.37
12452;BME280;72521;48.924;12.204;2023-09-19T22:09:24;97460.41;;;13.29;82.02
12452;BME280;72521;48.924;12.204;2023-09-19T22:14:29;97464.97;;;13.15;82.64
12452;BME280;72521;48.924;12.204;2023-09-19T22:19:35;97465.22;;;12.99;83.08
12452;BME280;72521;48.924;12.204;2023-09-19T22:24:46;97465.50;;;13.12;82.83
12452;BME280;72521;48.924;12.204;2023-09-19T22:29:53;97455.50;;;13.22;82.71
12452;BME280;72521;48.924;12.204;2023-09-19T22:34:57;97457.25;;;13.41;83.00
12452;BME280;72521;48.924;12.204;2023-09-19T22:40:02;97462.38;;;13.37;83.42
12452;BME280;72521;48.924;12.204;2023-09-19T22:45:15;97447.13;;;13.43;83.37
12452;BME280;72521;48.924;12.204;2023-09-19T22:50:19;97449.97;;;13.46;83.38
12452;BME280;72521;48.924;12.204;2023-09-19T22:55:27;97453.22;;;13.43;84.25
12452;BME280;72521;48.924;12.204;2023-09-19T23:00:35;97450.56;;;13.43;84.20
12452;BME280;72521;48.924;12.204;2023-09-19T23:05:40;97445.84;;;13.40;83.44
12452;BME280;72521;48.924;12.204;2023-09-19T23:10:46;97437.38;;;13.38;82.99
12452;BME280;72521;48.924;12.204;2023-09-19T23:15:54;97447.53;;;13.22;83.91
12452;BME280;72521;48.924;12.204;2023-09-19T23:20:59;97445.97;;;13.21;83.63
12452;BME280;72521;48.924;12.204;2023-09-19T23:26:17;97449.41;;;13.22;83.26
12452;BME280;72521;48.924;12.204;2023-09-19T23:31:24;97457.09;;;13.23;82.24
12452;BME280;72521;48.924;12.204;2023-09-19T23:36:28;97457.84;;;12.96;81.67
12452;BME280;72521;48.924;12.204;2023-09-19T23:41:32;97451.13;;;12.58;83.10
12452;BME280;72521;48.924;12.204;2023-09-19T23:46:37;97441.66;;;12.52;83.43
12452;BME280;72521;48.924;12.204;2023-09-19T23:51:44;97447.13;;;12.42;84.63
12452;BME280;72521;48.924;12.204;2023-09-19T23:56:50;97444.84;;;12.35;84.61
